Date,TemperatureHighF,TemperatureAvgF,TemperatureLowF,DewpointHighF,DewpointAvgF,DewpointLowF,HumidityHigh,HumidityAvg,HumidityLow,PressureMaxIn,PressureMinIn,WindSpeedMaxMPH,WindSpeedAvgMPH,GustSpeedMaxMPH,PrecipitationSumIn
2013-1-1,37.8,36.7,36.0,31.2,30.3,29.8,78,78,77,30.21,30.19,0,0,0,0.01
2013-1-2,53.0,39.8,31.5,39.8,32.3,26.8,87,75,56,30.20,30.08,0,0,0,0.00
2013-1-3,52.2,40.1,31.6,42.6,33.3,26.7,88,77,63,30.22,30.12,0,0,1,0.00
2013-1-4,54.0,42.4,34.5,42.0,34.9,29.7,92,75,58,30.25,30.13,0,0,1,0.00
2013-1-5,53.0,45.6,37.0,48.9,41.0,31.4,89,84,77,30.21,30.02,0,0,1,0.00
2013-1-6,48.4,45.8,39.6,45.4,42.6,36.3,90,89,87,30.15,30.00,0,0,0,0.00
2013-1-7,54.9,44.6,36.5,52.0,41.5,33.4,91,89,88,30.22,30.11,0,0,0,0.00
2013-1-8,56.6,46.5,39.6,51.7,42.6,36.3,92,86,79,30.19,30.08,0,0,0,0.00
2013-1-9,53.8,45.2,39.8,50.4,41.4,36.0,92,86,84,30.11,29.97,0,0,1,0.01
2013-1-10,50.6,43.2,37.8,40.6,36.5,33.1,88,78,61,30.16,30.04,0,0,4,0.00
2013-1-11,50.5,41.4,33.7,41.8,34.7,28.6,87,77,68,30.22,30.09,0,0,0,0.00
2013-1-12,47.3,39.3,33.7,35.9,29.3,24.8,87,69,42,30.21,30.09,0,0,1,0.00
2013-1-13,47.5,36.7,29.3,32.5,26.1,23.0,84,67,42,30.23,30.13,0,0,1,0.02
2013-1-14,47.2,36.5,28.5,28.0,24.1,19.5,79,62,37,30.37,30.18,0,0,1,0.84
2013-1-15,34.2,32.0,30.2,26.2,24.3,23.5,78,73,68,30.42,30.35,0,0,0,0.12
2013-1-16,53.6,39.6,30.9,37.2,30.3,25.2,87,70,50,30.40,30.22,0,0,3,0.10
2013-1-17,59.0,42.4,32.0,40.6,32.6,26.5,87,69,48,30.23,30.11,0,0,2,0.07
2013-1-18,59.6,44.7,34.1,43.3,34.8,28.2,87,69,51,30.18,30.08,0,0,2,0.06
2013-1-19,59.8,44.9,33.2,43.9,35.0,27.4,88,69,49,30.20,30.10,0,0,0,0.04
2013-1-20,61.0,45.2,34.0,42.6,34.2,28.6,88,67,42,30.19,30.08,0,0,0,0.03
2013-1-21,59.9,44.4,33.0,41.8,34.0,26.9,87,68,47,30.15,30.03,0,0,1,0.02
2013-1-22,58.4,45.9,35.4,44.1,36.6,29.5,86,71,53,30.06,29.95,0,0,1,0.00
2013-1-23,52.1,48.6,45.3,48.0,43.8,39.0,87,83,77,30.04,29.91,0,0,0,0.06
2013-1-24,55.6,52.1,49.2,52.7,48.8,45.6,90,89,87,30.14,30.02,0,0,0,0.00
2013-1-25,61.0,55.0,51.1,56.6,51.2,46.4,92,87,82,30.15,30.00,0,0,0,0.02
2013-1-26,55.9,49.5,43.0,46.5,42.5,36.6,90,77,62,30.05,29.97,0,0,2,0.00
2013-1-27,53.9,45.9,39.5,40.5,37.5,32.8,86,73,47,30.13,30.04,0,0,1,0.00
2013-1-28,55.5,47.0,39.8,43.4,39.4,33.8,86,75,63,30.26,30.12,0,0,1,0.00
2013-1-29,57.0,46.8,39.7,45.3,39.0,33.9,87,74,63,30.32,30.22,0,0,1,0.00
2013-1-30,64.4,49.4,39.6,46.9,39.5,34.6,92,70,49,30.30,30.20,0,0,1,0.00
2013-1-31,59.0,43.6,37.9,47.1,37.1,32.6,88,78,59,30.25,30.16,0,0,2,0.00